sensor_id;sensor_type;location;lat;lon;timestamp;P1;durP1;ratioP1;P2;durP2;ratioP2
35306;SDS011;21420;52.196;21.416;2022-08-21T00:00:18;5.62;;;5.05;;
35306;SDS011;21420;52.196;21.416;2022-08-21T00:02:58;6.10;;;4.92;;
35306;SDS011;21420;52.196;21.416;2022-08-21T00:05:22;5.10;;;4.55;;
35306;SDS011;21420;52.196;21.416;2022-08-21T00:07:50;5.47;;;4.87;;
35306;SDS011;21420;52.196;21.416;2022-08-21T00:10:17;8.35;;;5.58;;
35306;SDS011;21420;52.196;21.416;2022-08-21T00:12:44;5.42;;;4.92;;
35306;SDS011;21420;52.196;21.416;2022-08-21T00:15:12;7.03;;;4.85;;
35306;SDS011;21420;52.196;21.416;2022-08-21T00:17:44;7.30;;;4.83;;
35306;SDS011;21420;52.196;21.416;2022-08-21T00:20:11;8.85;;;4.70;;
35306;SDS011;21420;52.196;21.416;2022-08-21T00:22:40;6.33;;;4.65;;
35306;SDS011;21420;52.196;21.416;2022-08-21T00:25:07;6.75;;;4.95;;
35306;SDS011;21420;52.196;21.416;2022-08-21T00:27:34;6.20;;;5.33;;
35306;SDS011;21420;52.196;21.416;2022-08-21T00:30:01;8.73;;;5.45;;
35306;SDS011;21420;52.196;21.416;2022-08-21T00:32:31;6.92;;;4.87;;
35306;SDS011;21420;52.196;21.416;2022-08-21T00:34:58;5.42;;;4.78;;
35306;SDS011;21420;52.196;21.416;2022-08-21T00:37:24;5.33;;;4.80;;
35306;SDS011;21420;52.196;21.416;2022-08-21T00:39:51;6.45;;;4.80;;
35306;SDS011;21420;52.196;21.416;2022-08-21T00:42:18;8.48;;;4.92;;
35306;SDS011;21420;52.196;21.416;2022-08-21T00:44:46;6.87;;;4.85;;
35306;SDS011;21420;52.196;21.416;2022-08-21T00:47:16;6.72;;;4.80;;
35306;SDS011;21420;52.196;21.416;2022-08-21T00:49:43;5.97;;;4.70;;
35306;SDS011;21420;52.196;21.416;2022-08-21T00:52:13;5.22;;;4.60;;
35306;SDS011;21420;52.196;21.416;2022-08-21T00:54:42;5.62;;;4.80;;
35306;SDS011;21420;52.196;21.416;2022-08-21T00:57:11;7.40;;;4.87;;
35306;SDS011;21420;52.196;21.416;2022-08-21T00:59:42;5.60;;;4.70;;
35306;SDS011;21420;52.196;21.416;2022-08-21T01:02:11;5.42;;;4.65;;
35306;SDS011;21420;52.196;21.416;2022-08-21T01:04:38;7.65;;;4.92;;
35306;SDS011;21420;52.196;21.416;2022-08-21T01:07:05;5.12;;;4.62;;
35306;SDS011;21420;52.196;21.416;2022-08-21T01:09:32;6.30;;;4.75;;
35306;SDS011;21420;52.196;21.416;2022-08-21T01:11:58;5.37;;;4.00;;
35306;SDS011;21420;52.196;21.416;2022-08-21T01:14:25;5.37;;;4.75;;
35306;SDS011;21420;52.196;21.416;2022-08-21T01:16:53;8.90;;;4.92;;
35306;SDS011;21420;52.196;21.416;2022-08-21T01:19:21;10.60;;;5.17;;
35306;SDS011;21420;52.196;21.416;2022-08-21T01:21:49;6.20;;;4.40;;
35306;SDS011;21420;52.196;21.416;2022-08-21T01:24:16;7.12;;;4.67;;
35306;SDS011;21420;52.196;21.416;2022-08-21T01:26:42;6.33;;;4.50;;
35306;SDS011;21420;52.196;21.416;2022-08-21T01:32:06;7.60;;;4.53;;
35306;SDS011;21420;52.196;21.416;2022-08-21T01:34:41;7.25;;;4.87;;
35306;SDS011;21420;52.196;21.416;2022-08-21T01:37:10;5.08;;;4.58;;
35306;SDS011;21420;52.196;21.416;2022-08-21T01:39:38;4.90;;;4.50;;
35306;SDS011;21420;52.196;21.416;2022-08-21T01:42:05;4.85;;;4.20;;
35306;SDS011;21420;52.196;21.416;2022-08-21T01:44:33;5.17;;;4.67;;
35306;SDS011;21420;52.196;21.416;2022-08-21T01:47:00;6.92;;;5.08;;
35306;SDS011;21420;52.196;21.416;2022-08-21T01:49:30;4.72;;;4.22;;
35306;SDS011;21420;52.196;21.416;2022-08-21T01:51:56;4.70;;;4.28;;
35306;SDS011;21420;52.196;21.416;2022-08-21T01:54:23;4.87;;;4.22;;
35306;SDS011;21420;52.196;21.416;2022-08-21T01:56:50;7.58;;;4.83;;
35306;SDS011;21420;52.196;21.416;2022-08-21T01:59:19;6.03;;;5.15;;
35306;SDS011;21420;52.196;21.416;2022-08-21T02:01:47;6.08;;;4.53;;
35306;SDS011;21420;52.196;21.416;2022-08-21T02:04:13;5.47;;;4.80;;
35306;SDS011;21420;52.196;21.416;2022-08-21T02:06:40;5.15;;;4.55;;
35306;SDS011;21420;52.196;21.416;2022-08-21T02:09:07;5.12;;;4.62;;
35306;SDS011;21420;52.196;21.416;2022-08-21T02:11:35;5.55;;;4.85;;
35306;SDS011;21420;52.196;21.416;2022-08-21T02:14:04;5.30;;;4.80;;
35306;SDS011;21420;52.196;21.416;2022-08-21T02:19:26;6.35;;;4.50;;
35306;SDS011;21420;52.196;21.416;2022-08-21T02:21:52;5.17;;;4.62;;
35306;SDS011;21420;52.196;21.416;2022-08-21T02:24:18;8.75;;;4.78;;
35306;SDS011;21420;52.196;21.416;2022-08-21T02:26:44;5.33;;;4.67;;
35306;SDS011;21420;52.196;21.416;2022-08-21T02:29:10;6.33;;;4.78;;
35306;SDS011;21420;52.196;21.416;2022-08-21T02:31:37;5.53;;;4.60;;
35306;SDS011;21420;52.196;21.416;2022-08-21T02:34:04;5.53;;;4.35;;
35306;SDS011;21420;52.196;21.416;2022-08-21T02:36:30;5.37;;;4.70;;
35306;SDS011;21420;52.196;21.416;2022-08-21T02:38:57;5.58;;;4.40;;
35306;SDS011;21420;52.196;21.416;2022-08-21T02:41:23;5.12;;;4.58;;
35306;SDS011;21420;52.196;21.416;2022-08-21T02:43:50;5.42;;;4.92;;
35306;SDS011;21420;52.196;21.416;2022-08-21T02:46:17;6.60;;;4.62;;
35306;SDS011;21420;52.196;21.416;2022-08-21T02:51:14;5.60;;;5.05;;
35306;SDS011;21420;52.196;21.416;2022-08-21T02:53:43;5.83;;;4.83;;
35306;SDS011;21420;52.196;21.416;2022-08-21T02:56:13;5.40;;;4.72;;
35306;SDS011;21420;52.196;21.416;2022-08-21T02:58:43;4.92;;;4.53;;
35306;SDS011;21420;52.196;21.416;2022-08-21T03:01:14;5.90;;;4.42;;
35306;SDS011;21420;52.196;21.416;2022-08-21T03:03:42;7.22;;;4.75;;
35306;SDS011;21420;52.196;21.416;2022-08-21T03:06:13;5.12;;;4.62;;
35306;SDS011;21420;52.196;21.416;2022-08-21T03:08:41;5.55;;;4.47;;
35306;SDS011;21420;52.196;21.416;2022-08-21T03:11:10;4.67;;;4.17;;
35306;SDS011;21420;52.196;21.416;2022-08-21T03:13:38;6.25;;;4.70;;
35306;SDS011;21420;52.196;21.416;2022-08-21T03:16:04;6.47;;;4.83;;
35306;SDS011;21420;52.196;21.416;2022-08-21T03:18:31;6.50;;;4.40;;
35306;SDS011;21420;52.196;21.416;2022-08-21T03:20:58;4.80;;;4.15;;
35306;SDS011;21420;52.196;21.416;2022-08-21T03:23:25;8.18;;;4.65;;
35306;SDS011;21420;52.196;21.416;2022-08-21T03:25:51;6.08;;;4.60;;
35306;SDS011;21420;52.196;21.416;2022-08-21T03:28:19;8.83;;;4.37;;
35306;SDS011;21420;52.196;21.416;2022-08-21T03:30:48;7.42;;;5.37;;
35306;SDS011;21420;52.196;21.416;2022-08-21T03:35:44;6.78;;;5.17;;
35306;SDS011;21420;52.196;21.416;2022-08-21T03:38:14;6.50;;;4.65;;
35306;SDS011;21420;52.196;21.416;2022-08-21T03:40:41;6.50;;;4.70;;
35306;SDS011;21420;52.196;21.416;2022-08-21T03:43:09;6.28;;;4.87;;
35306;SDS011;21420;52.196;21.416;2022-08-21T03:45:36;6.60;;;5.00;;
35306;SDS011;21420;52.196;21.416;2022-08-21T03:48:04;5.87;;;5.10;;
35306;SDS011;21420;52.196;21.416;2022-08-21T03:50:33;7.30;;;5.05;;
35306;SDS011;21420;52.196;21.416;2022-08-21T03:53:02;6.60;;;5.25;;
35306;SDS011;21420;52.196;21.416;2022-08-21T03:55:31;7.80;;;5.28;;
35306;SDS011;21420;52.196;21.416;2022-08-21T03:57:58;6.40;;;5.20;;
35306;SDS011;21420;52.196;21.416;2022-08-21T04:00:24;7.40;;;5.12;;
35306;SDS011;21420;52.196;21.416;2022-08-21T04:02:50;5.75;;;4.95;;
35306;SDS011;21420;52.196;21.416;2022-08-21T04:05:18;7.37;;;4.87;;
35306;SDS011;21420;52.196;21.416;2022-08-21T04:10:13;12.78;;;5.33;;
35306;SDS011;21420;52.196;21.416;2022-08-21T04:12:39;6.17;;;5.33;;
35306;SDS011;21420;52.196;21.416;2022-08-21T04:15:05;8.20;;;4.70;;
35306;SDS011;21420;52.196;21.416;2022-08-21T04:17:32;6.35;;;5.03;;
35306;SDS011;21420;52.196;21.416;2022-08-21T04:19:58;6.15;;;5.20;;
35306;SDS011;21420;52.196;21.416;2022-08-21T04:22:24;5.08;;;4.58;;
35306;SDS011;21420;52.196;21.416;2022-08-21T04:24:50;5.58;;;5.08;;
35306;SDS011;21420;52.196;21.416;2022-08-21T04:27:16;7.97;;;5.28;;
35306;SDS011;21420;52.196;21.416;2022-08-21T04:29:42;5.33;;;4.83;;
35306;SDS011;21420;52.196;21.416;2022-08-21T04:32:08;5.40;;;4.72;;
35306;SDS011;21420;52.196;21.416;2022-08-21T04:34:34;6.33;;;4.87;;
35306;SDS011;21420;52.196;21.416;2022-08-21T04:50:07;5.65;;;5.03;;
35306;SDS011;21420;52.196;21.416;2022-08-21T04:52:34;4.97;;;4.47;;
35306;SDS011;21420;52.196;21.416;2022-08-21T04:55:00;7.90;;;5.00;;
35306;SDS011;21420;52.196;21.416;2022-08-21T04:57:27;7.45;;;4.58;;
35306;SDS011;21420;52.196;21.416;2022-08-21T04:59:53;5.12;;;4.33;;
35306;SDS011;21420;52.196;21.416;2022-08-21T05:02:20;5.37;;;4.35;;
35306;SDS011;21420;52.196;21.416;2022-08-21T05:04:48;5.10;;;3.75;;
35306;SDS011;21420;52.196;21.416;2022-08-21T05:09:50;6.33;;;4.40;;
35306;SDS011;21420;52.196;21.416;2022-08-21T05:12:17;5.17;;;4.25;;
35306;SDS011;21420;52.196;21.416;2022-08-21T05:14:44;4.95;;;3.77;;
35306;SDS011;21420;52.196;21.416;2022-08-21T05:17:10;6.58;;;4.58;;
35306;SDS011;21420;52.196;21.416;2022-08-21T05:19:36;6.80;;;5.12;;
35306;SDS011;21420;52.196;21.416;2022-08-21T05:22:02;5.60;;;4.58;;
35306;SDS011;21420;52.196;21.416;2022-08-21T05:24:29;6.55;;;5.17;;
35306;SDS011;21420;52.196;21.416;2022-08-21T05:26:55;5.35;;;4.67;;
35306;SDS011;21420;52.196;21.416;2022-08-21T05:29:21;5.55;;;5.00;;
35306;SDS011;21420;52.196;21.416;2022-08-21T05:31:48;4.75;;;4.35;;
35306;SDS011;21420;52.196;21.416;2022-08-21T05:34:15;4.58;;;4.00;;
35306;SDS011;21420;52.196;21.416;2022-08-21T05:36:47;5.20;;;4.58;;
35306;SDS011;21420;52.196;21.416;2022-08-21T05:39:13;4.42;;;3.87;;
35306;SDS011;21420;52.196;21.416;2022-08-21T05:41:40;7.90;;;4.80;;
35306;SDS011;21420;52.196;21.416;2022-08-21T05:44:06;5.50;;;4.50;;
35306;SDS011;21420;52.196;21.416;2022-08-21T05:46:32;4.97;;;4.55;;
35306;SDS011;21420;52.196;21.416;2022-08-21T05:48:58;4.60;;;4.20;;
35306;SDS011;21420;52.196;21.416;2022-08-21T05:51:25;4.35;;;3.80;;
35306;SDS011;21420;52.196;21.416;2022-08-21T05:53:51;5.30;;;4.80;;
35306;SDS011;21420;52.196;21.416;2022-08-21T05:56:18;5.17;;;4.67;;
35306;SDS011;21420;52.196;21.416;2022-08-21T05:58:44;5.58;;;4.62;;
35306;SDS011;21420;52.196;21.416;2022-08-21T06:01:10;4.90;;;4.45;;
35306;SDS011;21420;52.196;21.416;2022-08-21T06:03:38;5.05;;;4.58;;
35306;SDS011;21420;52.196;21.416;2022-08-21T06:06:06;7.75;;;4.62;;
35306;SDS011;21420;52.196;21.416;2022-08-21T06:08:33;5.90;;;3.85;;
35306;SDS011;21420;52.196;21.416;2022-08-21T06:11:00;6.55;;;4.28;;
35306;SDS011;21420;52.196;21.416;2022-08-21T06:13:27;5.65;;;4.08;;
35306;SDS011;21420;52.196;21.416;2022-08-21T06:16:02;9.10;;;5.05;;
35306;SDS011;21420;52.196;21.416;2022-08-21T06:18:38;5.47;;;4.47;;
35306;SDS011;21420;52.196;21.416;2022-08-21T06:21:04;5.25;;;4.75;;
35306;SDS011;21420;52.196;21.416;2022-08-21T06:23:33;6.78;;;4.30;;
35306;SDS011;21420;52.196;21.416;2022-08-21T06:26:01;5.25;;;4.53;;
35306;SDS011;21420;52.196;21.416;2022-08-21T06:28:30;4.55;;;4.03;;
35306;SDS011;21420;52.196;21.416;2022-08-21T06:30:59;5.50;;;5.00;;
35306;SDS011;21420;52.196;21.416;2022-08-21T06:33:25;4.65;;;4.25;;
35306;SDS011;21420;52.196;21.416;2022-08-21T06:35:52;6.80;;;4.47;;
35306;SDS011;21420;52.196;21.416;2022-08-21T06:38:18;5.92;;;4.17;;
35306;SDS011;21420;52.196;21.416;2022-08-21T06:40:45;4.50;;;4.10;;
35306;SDS011;21420;52.196;21.416;2022-08-21T06:43:12;6.08;;;4.50;;
35306;SDS011;21420;52.196;21.416;2022-08-21T06:45:42;4.45;;;3.75;;
35306;SDS011;21420;52.196;21.416;2022-08-21T06:48:08;6.30;;;4.00;;
35306;SDS011;21420;52.196;21.416;2022-08-21T06:50:35;6.17;;;3.87;;
35306;SDS011;21420;52.196;21.416;2022-08-21T06:53:06;8.80;;;4.28;;
35306;SDS011;21420;52.196;21.416;2022-08-21T06:55:36;6.42;;;4.08;;
35306;SDS011;21420;52.196;21.416;2022-08-21T06:58:06;3.65;;;3.33;;
35306;SDS011;21420;52.196;21.416;2022-08-21T07:00:32;4.12;;;3.72;;
35306;SDS011;21420;52.196;21.416;2022-08-21T07:02:59;4.10;;;3.65;;
35306;SDS011;21420;52.196;21.416;2022-08-21T07:05:26;5.12;;;3.83;;
35306;SDS011;21420;52.196;21.416;2022-08-21T07:07:55;3.25;;;3.02;;
35306;SDS011;21420;52.196;21.416;2022-08-21T07:10:22;4.53;;;4.12;;
35306;SDS011;21420;52.196;21.416;2022-08-21T07:12:50;4.33;;;3.22;;
35306;SDS011;21420;52.196;21.416;2022-08-21T07:15:19;5.33;;;3.40;;
35306;SDS011;21420;52.196;21.416;2022-08-21T07:17:45;4.65;;;3.75;;
35306;SDS011;21420;52.196;21.416;2022-08-21T07:20:11;4.67;;;3.10;;
35306;SDS011;21420;52.196;21.416;2022-08-21T07:22:38;4.33;;;3.35;;
35306;SDS011;21420;52.196;21.416;2022-08-21T07:25:06;6.25;;;3.60;;
35306;SDS011;21420;52.196;21.416;2022-08-21T07:27:33;4.10;;;3.02;;
35306;SDS011;21420;52.196;21.416;2022-08-21T07:29:59;3.70;;;3.30;;
35306;SDS011;21420;52.196;21.416;2022-08-21T07:32:26;3.55;;;3.25;;
35306;SDS011;21420;52.196;21.416;2022-08-21T07:34:52;3.50;;;3.20;;
35306;SDS011;21420;52.196;21.416;2022-08-21T07:37:18;3.30;;;3.10;;
35306;SDS011;21420;52.196;21.416;2022-08-21T07:39:45;4.12;;;3.83;;
35306;SDS011;21420;52.196;21.416;2022-08-21T07:42:12;3.45;;;2.75;;
35306;SDS011;21420;52.196;21.416;2022-08-21T07:44:39;3.12;;;2.85;;
35306;SDS011;21420;52.196;21.416;2022-08-21T07:47:05;3.22;;;3.00;;
35306;SDS011;21420;52.196;21.416;2022-08-21T07:49:31;3.60;;;3.25;;
35306;SDS011;21420;52.196;21.416;2022-08-21T07:51:58;4.33;;;3.12;;
35306;SDS011;21420;52.196;21.416;2022-08-21T07:54:25;2.90;;;2.70;;
35306;SDS011;21420;52.196;21.416;2022-08-21T07:56:52;3.50;;;2.90;;
35306;SDS011;21420;52.196;21.416;2022-08-21T07:59:18;2.98;;;2.65;;
35306;SDS011;21420;52.196;21.416;2022-08-21T08:01:44;3.40;;;2.80;;
35306;SDS011;21420;52.196;21.416;2022-08-21T08:04:10;2.98;;;2.67;;
35306;SDS011;21420;52.196;21.416;2022-08-21T08:06:36;3.02;;;2.47;;
35306;SDS011;21420;52.196;21.416;2022-08-21T08:09:03;3.55;;;2.47;;
35306;SDS011;21420;52.196;21.416;2022-08-21T08:11:29;3.17;;;2.50;;
35306;SDS011;21420;52.196;21.416;2022-08-21T08:13:56;2.90;;;2.67;;
35306;SDS011;21420;52.196;21.416;2022-08-21T08:16:25;2.63;;;2.17;;
35306;SDS011;21420;52.196;21.416;2022-08-21T08:18:51;3.33;;;2.45;;
35306;SDS011;21420;52.196;21.416;2022-08-21T08:21:20;2.47;;;2.27;;
35306;SDS011;21420;52.196;21.416;2022-08-21T08:23:46;2.52;;;2.33;;
35306;SDS011;21420;52.196;21.416;2022-08-21T08:26:13;4.22;;;2.42;;
35306;SDS011;21420;52.196;21.416;2022-08-21T08:28:41;4.47;;;2.30;;
35306;SDS011;21420;52.196;21.416;2022-08-21T08:31:08;2.80;;;2.00;;
35306;SDS011;21420;52.196;21.416;2022-08-21T08:33:34;3.37;;;2.90;;
35306;SDS011;21420;52.196;21.416;2022-08-21T08:36:01;2.40;;;2.17;;
35306;SDS011;21420;52.196;21.416;2022-08-21T08:38:28;2.47;;;2.22;;
35306;SDS011;21420;52.196;21.416;2022-08-21T08:41:16;3.35;;;2.77;;
35306;SDS011;21420;52.196;21.416;2022-08-21T08:43:54;4.42;;;2.52;;
35306;SDS011;21420;52.196;21.416;2022-08-21T08:46:27;2.83;;;2.35;;
35306;SDS011;21420;52.196;21.416;2022-08-21T08:52:01;3.83;;;2.10;;
35306;SDS011;21420;52.196;21.416;2022-08-21T08:54:45;2.58;;;2.33;;
35306;SDS011;21420;52.196;21.416;2022-08-21T08:57:18;3.62;;;1.98;;
35306;SDS011;21420;52.196;21.416;2022-08-21T08:59:49;2.20;;;1.98;;
35306;SDS011;21420;52.196;21.416;2022-08-21T09:02:20;2.37;;;2.17;;
35306;SDS011;21420;52.196;21.416;2022-08-21T09:04:48;2.83;;;2.30;;
35306;SDS011;21420;52.196;21.416;2022-08-21T09:12:52;2.27;;;2.08;;
35306;SDS011;21420;52.196;21.416;2022-08-21T09:18:37;2.58;;;2.10;;
35306;SDS011;21420;52.196;21.416;2022-08-21T09:27:17;2.85;;;2.27;;
35306;SDS011;21420;52.196;21.416;2022-08-21T09:29:51;4.50;;;2.10;;
35306;SDS011;21420;52.196;21.416;2022-08-21T09:32:18;3.40;;;2.10;;
35306;SDS011;21420;52.196;21.416;2022-08-21T09:35:05;2.27;;;2.05;;
35306;SDS011;21420;52.196;21.416;2022-08-21T09:37:52;3.12;;;2.50;;
35306;SDS011;21420;52.196;21.416;2022-08-21T09:43:17;2.52;;;2.33;;
35306;SDS011;21420;52.196;21.416;2022-08-21T09:45:47;2.15;;;2.00;;
35306;SDS011;21420;52.196;21.416;2022-08-21T09:48:18;1.87;;;1.77;;
35306;SDS011;21420;52.196;21.416;2022-08-21T09:50:46;5.60;;;1.98;;
35306;SDS011;21420;52.196;21.416;2022-08-21T09:55:56;3.83;;;2.15;;
35306;SDS011;21420;52.196;21.416;2022-08-21T09:58:46;2.37;;;2.10;;
35306;SDS011;21420;52.196;21.416;2022-08-21T10:01:16;3.25;;;2.52;;
35306;SDS011;21420;52.196;21.416;2022-08-21T10:03:48;3.52;;;2.58;;
35306;SDS011;21420;52.196;21.416;2022-08-21T10:08:50;2.77;;;2.37;;
35306;SDS011;21420;52.196;21.416;2022-08-21T10:11:16;3.60;;;2.42;;
35306;SDS011;21420;52.196;21.416;2022-08-21T10:19:13;4.45;;;2.10;;
35306;SDS011;21420;52.196;21.416;2022-08-21T10:30:35;3.75;;;1.90;;
35306;SDS011;21420;52.196;21.416;2022-08-21T10:36:15;2.15;;;2.00;;
35306;SDS011;21420;52.196;21.416;2022-08-21T10:44:38;2.02;;;1.87;;
35306;SDS011;21420;52.196;21.416;2022-08-21T10:47:18;3.45;;;2.30;;
35306;SDS011;21420;52.196;21.416;2022-08-21T10:58:49;2.62;;;2.30;;
35306;SDS011;21420;52.196;21.416;2022-08-21T11:01:20;2.58;;;2.47;;
35306;SDS011;21420;52.196;21.416;2022-08-21T11:03:52;2.60;;;2.40;;
35306;SDS011;21420;52.196;21.416;2022-08-21T11:06:25;3.90;;;2.42;;
35306;SDS011;21420;52.196;21.416;2022-08-21T11:09:05;2.77;;;2.40;;
35306;SDS011;21420;52.196;21.416;2022-08-21T11:11:47;1.85;;;1.75;;
35306;SDS011;21420;52.196;21.416;2022-08-21T11:17:07;4.78;;;2.50;;
35306;SDS011;21420;52.196;21.416;2022-08-21T11:22:28;3.90;;;2.00;;
35306;SDS011;21420;52.196;21.416;2022-08-21T11:25:21;2.50;;;2.30;;
35306;SDS011;21420;52.196;21.416;2022-08-21T11:36:41;2.83;;;2.60;;
35306;SDS011;21420;52.196;21.416;2022-08-21T11:53:20;2.60;;;2.40;;
35306;SDS011;21420;52.196;21.416;2022-08-21T11:58:35;3.22;;;2.62;;
35306;SDS011;21420;52.196;21.416;2022-08-21T12:01:19;4.33;;;2.70;;
35306;SDS011;21420;52.196;21.416;2022-08-21T12:03:53;4.92;;;2.72;;
35306;SDS011;21420;52.196;21.416;2022-08-21T12:06:34;3.47;;;2.95;;
35306;SDS011;21420;52.196;21.416;2022-08-21T12:09:29;3.62;;;2.67;;
35306;SDS011;21420;52.196;21.416;2022-08-21T12:12:03;3.37;;;2.30;;
35306;SDS011;21420;52.196;21.416;2022-08-21T12:14:47;2.60;;;2.27;;
35306;SDS011;21420;52.196;21.416;2022-08-21T12:17:18;3.47;;;3.17;;
35306;SDS011;21420;52.196;21.416;2022-08-21T12:19:57;2.58;;;2.10;;
35306;SDS011;21420;52.196;21.416;2022-08-21T12:22:37;5.55;;;2.60;;
35306;SDS011;21420;52.196;21.416;2022-08-21T12:25:08;2.85;;;2.20;;
35306;SDS011;21420;52.196;21.416;2022-08-21T12:27:45;2.50;;;2.30;;
35306;SDS011;21420;52.196;21.416;2022-08-21T12:33:04;3.02;;;2.20;;
35306;SDS011;21420;52.196;21.416;2022-08-21T12:35:47;3.12;;;2.40;;
35306;SDS011;21420;52.196;21.416;2022-08-21T12:39:02;3.42;;;2.60;;
35306;SDS011;21420;52.196;21.416;2022-08-21T12:40:56;3.83;;;2.60;;
35306;SDS011;21420;52.196;21.416;2022-08-21T12:43:39;2.72;;;2.20;;
35306;SDS011;21420;52.196;21.416;2022-08-21T12:46:17;5.10;;;4.05;;
35306;SDS011;21420;52.196;21.416;2022-08-21T12:49:07;2.95;;;2.75;;
35306;SDS011;21420;52.196;21.416;2022-08-21T12:54:28;4.95;;;3.00;;
35306;SDS011;21420;52.196;21.416;2022-08-21T12:59:29;3.80;;;3.50;;
35306;SDS011;21420;52.196;21.416;2022-08-21T13:01:57;8.58;;;3.02;;
35306;SDS011;21420;52.196;21.416;2022-08-21T13:04:36;2.47;;;2.27;;
35306;SDS011;21420;52.196;21.416;2022-08-21T13:07:07;4.85;;;2.40;;
35306;SDS011;21420;52.196;21.416;2022-08-21T13:09:47;3.47;;;2.50;;
35306;SDS011;21420;52.196;21.416;2022-08-21T13:12:19;2.37;;;2.22;;
35306;SDS011;21420;52.196;21.416;2022-08-21T13:14:47;3.30;;;2.47;;
35306;SDS011;21420;52.196;21.416;2022-08-21T13:17:17;2.98;;;2.67;;
35306;SDS011;21420;52.196;21.416;2022-08-21T13:19:59;3.08;;;2.45;;
35306;SDS011;21420;52.196;21.416;2022-08-21T13:22:29;3.25;;;2.52;;
35306;SDS011;21420;52.196;21.416;2022-08-21T13:24:57;4.83;;;3.15;;
35306;SDS011;21420;52.196;21.416;2022-08-21T13:27:27;2.47;;;2.27;;
35306;SDS011;21420;52.196;21.416;2022-08-21T13:30:13;4.15;;;2.60;;
35306;SDS011;21420;52.196;21.416;2022-08-21T13:32:47;2.55;;;2.35;;
35306;SDS011;21420;52.196;21.416;2022-08-21T13:35:22;4.75;;;2.10;;
35306;SDS011;21420;52.196;21.416;2022-08-21T13:37:57;3.00;;;2.60;;
35306;SDS011;21420;52.196;21.416;2022-08-21T13:40:26;3.08;;;2.77;;
35306;SDS011;21420;52.196;21.416;2022-08-21T13:42:59;2.20;;;2.00;;
35306;SDS011;21420;52.196;21.416;2022-08-21T13:45:29;2.77;;;2.45;;
35306;SDS011;21420;52.196;21.416;2022-08-21T13:48:00;2.50;;;2.20;;
35306;SDS011;21420;52.196;21.416;2022-08-21T13:50:28;2.90;;;2.53;;
35306;SDS011;21420;52.196;21.416;2022-08-21T13:52:57;3.05;;;2.30;;
35306;SDS011;21420;52.196;21.416;2022-08-21T13:55:33;2.85;;;2.35;;
35306;SDS011;21420;52.196;21.416;2022-08-21T13:58:04;2.92;;;2.70;;
35306;SDS011;21420;52.196;21.416;2022-08-21T14:00:32;2.67;;;2.20;;
35306;SDS011;21420;52.196;21.416;2022-08-21T14:03:08;2.37;;;2.10;;
35306;SDS011;21420;52.196;21.416;2022-08-21T14:05:37;5.42;;;2.40;;
35306;SDS011;21420;52.196;21.416;2022-08-21T14:08:11;3.42;;;2.30;;
35306;SDS011;21420;52.196;21.416;2022-08-21T14:10:49;3.25;;;2.75;;
35306;SDS011;21420;52.196;21.416;2022-08-21T14:16:11;2.50;;;2.27;;
35306;SDS011;21420;52.196;21.416;2022-08-21T14:18:52;3.02;;;2.35;;
35306;SDS011;21420;52.196;21.416;2022-08-21T14:21:34;3.00;;;2.80;;
35306;SDS011;21420;52.196;21.416;2022-08-21T14:24:14;3.08;;;2.77;;
35306;SDS011;21420;52.196;21.416;2022-08-21T14:26:53;3.30;;;2.85;;
35306;SDS011;21420;52.196;21.416;2022-08-21T14:29:24;2.90;;;2.65;;
35306;SDS011;21420;52.196;21.416;2022-08-21T14:31:55;2.58;;;2.37;;
35306;SDS011;21420;52.196;21.416;2022-08-21T14:34:24;3.05;;;2.72;;
35306;SDS011;21420;52.196;21.416;2022-08-21T14:36:53;2.87;;;2.67;;
35306;SDS011;21420;52.196;21.416;2022-08-21T14:39:21;3.35;;;2.75;;
35306;SDS011;21420;52.196;21.416;2022-08-21T14:41:49;5.30;;;2.73;;
35306;SDS011;21420;52.196;21.416;2022-08-21T14:44:21;3.90;;;2.70;;
35306;SDS011;21420;52.196;21.416;2022-08-21T14:46:48;3.00;;;2.50;;
35306;SDS011;21420;52.196;21.416;2022-08-21T14:49:15;3.22;;;3.02;;
35306;SDS011;21420;52.196;21.416;2022-08-21T14:51:42;5.20;;;2.92;;
35306;SDS011;21420;52.196;21.416;2022-08-21T14:54:08;5.42;;;3.37;;
35306;SDS011;21420;52.196;21.416;2022-08-21T14:56:35;7.03;;;3.27;;
35306;SDS011;21420;52.196;21.416;2022-08-21T14:59:03;4.60;;;3.80;;
35306;SDS011;21420;52.196;21.416;2022-08-21T15:01:33;9.08;;;3.37;;
35306;SDS011;21420;52.196;21.416;2022-08-21T15:04:02;3.83;;;3.40;;
35306;SDS011;21420;52.196;21.416;2022-08-21T15:06:30;4.72;;;3.40;;
35306;SDS011;21420;52.196;21.416;2022-08-21T15:08:57;3.33;;;3.02;;
35306;SDS011;21420;52.196;21.416;2022-08-21T15:11:23;3.50;;;3.20;;
35306;SDS011;21420;52.196;21.416;2022-08-21T15:13:52;5.05;;;3.60;;
35306;SDS011;21420;52.196;21.416;2022-08-21T15:16:21;3.85;;;3.17;;
35306;SDS011;21420;52.196;21.416;2022-08-21T15:18:48;3.83;;;3.40;;
35306;SDS011;21420;52.196;21.416;2022-08-21T15:21:14;4.30;;;3.45;;
35306;SDS011;21420;52.196;21.416;2022-08-21T15:23:41;3.90;;;3.50;;
35306;SDS011;21420;52.196;21.416;2022-08-21T15:26:07;3.67;;;3.33;;
35306;SDS011;21420;52.196;21.416;2022-08-21T15:28:34;3.70;;;3.22;;
35306;SDS011;21420;52.196;21.416;2022-08-21T15:31:02;4.53;;;4.10;;
35306;SDS011;21420;52.196;21.416;2022-08-21T15:33:28;4.97;;;4.08;;
35306;SDS011;21420;52.196;21.416;2022-08-21T15:35:57;4.00;;;3.62;;
35306;SDS011;21420;52.196;21.416;2022-08-21T15:38:23;4.92;;;3.40;;
35306;SDS011;21420;52.196;21.416;2022-08-21T15:40:52;6.45;;;3.90;;
35306;SDS011;21420;52.196;21.416;2022-08-21T15:43:24;4.97;;;3.90;;
35306;SDS011;21420;52.196;21.416;2022-08-21T15:45:54;3.85;;;3.42;;
35306;SDS011;21420;52.196;21.416;2022-08-21T15:48:21;5.53;;;4.33;;
35306;SDS011;21420;52.196;21.416;2022-08-21T15:50:48;4.30;;;3.55;;
35306;SDS011;21420;52.196;21.416;2022-08-21T15:53:16;6.75;;;5.42;;
35306;SDS011;21420;52.196;21.416;2022-08-21T15:55:42;5.58;;;5.05;;
35306;SDS011;21420;52.196;21.416;2022-08-21T15:58:12;4.60;;;3.50;;
35306;SDS011;21420;52.196;21.416;2022-08-21T16:00:40;3.55;;;3.25;;
35306;SDS011;21420;52.196;21.416;2022-08-21T16:03:10;7.15;;;5.03;;
35306;SDS011;21420;52.196;21.416;2022-08-21T16:05:42;6.65;;;4.25;;
35306;SDS011;21420;52.196;21.416;2022-08-21T16:08:10;5.75;;;4.28;;
35306;SDS011;21420;52.196;21.416;2022-08-21T16:10:37;7.22;;;3.67;;
35306;SDS011;21420;52.196;21.416;2022-08-21T16:13:06;6.30;;;4.40;;
35306;SDS011;21420;52.196;21.416;2022-08-21T16:15:39;5.55;;;3.85;;
35306;SDS011;21420;52.196;21.416;2022-08-21T16:18:06;6.05;;;4.70;;
35306;SDS011;21420;52.196;21.416;2022-08-21T16:20:32;5.87;;;3.98;;
35306;SDS011;21420;52.196;21.416;2022-08-21T16:22:59;6.08;;;4.10;;
35306;SDS011;21420;52.196;21.416;2022-08-21T16:25:25;5.62;;;4.40;;
35306;SDS011;21420;52.196;21.416;2022-08-21T16:27:54;4.30;;;3.92;;
35306;SDS011;21420;52.196;21.416;2022-08-21T16:30:23;6.10;;;5.50;;
35306;SDS011;21420;52.196;21.416;2022-08-21T16:32:50;5.00;;;4.00;;
35306;SDS011;21420;52.196;21.416;2022-08-21T16:35:17;4.28;;;3.95;;
35306;SDS011;21420;52.196;21.416;2022-08-21T16:37:46;7.22;;;4.17;;
35306;SDS011;21420;52.196;21.416;2022-08-21T16:40:14;4.37;;;3.98;;
35306;SDS011;21420;52.196;21.416;2022-08-21T16:42:41;4.35;;;4.05;;
35306;SDS011;21420;52.196;21.416;2022-08-21T16:45:09;4.53;;;3.98;;
35306;SDS011;21420;52.196;21.416;2022-08-21T16:47:38;5.28;;;3.90;;
35306;SDS011;21420;52.196;21.416;2022-08-21T16:50:05;5.58;;;4.70;;
35306;SDS011;21420;52.196;21.416;2022-08-21T16:52:33;4.95;;;4.45;;
35306;SDS011;21420;52.196;21.416;2022-08-21T16:55:01;5.10;;;4.10;;